Time;durP1;ratioP1;P1;durP2;ratioP2;P2;SDS_P1;SDS_P2;PMS_P1;PMS_P2;Temp;Humidity;BMP_temperature;BMP_pressure;BME280_temperature;BME280_humidity;BME280_pressure;Samples;Min_cycle;Max_cycle;Signal;HPM_P1;HPM_P2
2024/01/30 00:00:16;;;;;;;11.20;7.47;;;;;;;;;;684428;28;1898;-62
2024/01/30 00:00:37;;;;;;;10.45;7.50;;;;;;;;;;684728;28;922;-63
2024/01/30 00:00:57;;;;;;;11.00;7.53;;;;;;;;;;683869;28;1803;-63
2024/01/30 00:01:17;;;;;;;11.57;7.20;;;;;;;;;;685924;28;4549;-64
2024/01/30 00:01:38;;;;;;;10.50;7.35;;;;;;;;;;687361;28;888;-64
2024/01/30 00:01:58;;;;;;;10.27;7.70;;;;;;;;;;686342;28;2433;-64
2024/01/30 00:02:18;;;;;;;12.40;8.40;;;;;;;;;;687373;28;929;-64
2024/01/30 00:02:39;;;;;;;12.73;7.90;;;;;;;;;;687262;28;1282;-66
2024/01/30 00:02:59;;;;;;;10.93;7.50;;;;;;;;;;685824;28;2373;-63
2024/01/30 00:03:19;;;;;;;10.73;7.97;;;;;;;;;;687222;28;692;-65
2024/01/30 00:03:40;;;;;;;11.27;7.90;;;;;;;;;;686846;28;1094;-67
2024/01/30 00:04:00;;;;;;;11.27;7.60;;;;;;;;;;687871;28;890;-64
2024/01/30 00:04:20;;;;;;;12.02;8.30;;;;;;;;;;684111;28;4425;-64
2024/01/30 00:04:41;;;;;;;11.97;8.07;;;;;;;;;;683538;28;1779;-64
2024/01/30 00:05:03;;;;;;;11.93;7.80;;;;;;;;;;684904;28;821;-63
2024/01/30 00:05:24;;;;;;;13.18;8.65;;;;;;;;;;684764;28;1035;-65
2024/01/30 00:05:44;;;;;;;11.30;8.37;;;;;;;;;;683506;28;1372;-63
2024/01/30 00:06:05;;;;;;;11.35;8.07;;;;;;;;;;685068;28;1283;-62
2024/01/30 00:06:26;;;;;;;11.93;7.97;;;;;;;;;;684765;28;922;-64
2024/01/30 00:06:46;;;;;;;12.30;7.87;;;;;;;;;;683739;28;1833;-63
2024/01/30 00:07:07;;;;;;;10.40;7.53;;;;;;;;;;684175;28;4393;-62
2024/01/30 00:07:28;;;;;;;10.63;7.50;;;;;;;;;;684900;28;1033;-62
2024/01/30 00:07:50;;;;;;;11.18;7.68;;;;;;;;;;683776;28;1772;-62
2024/01/30 00:08:11;;;;;;;9.68;7.32;;;;;;;;;;685051;28;862;-63
2024/01/30 00:08:31;;;;;;;11.20;7.63;;;;;;;;;;684611;28;919;-63
2024/01/30 00:08:53;;;;;;;12.00;8.02;;;;;;;;;;683839;28;1713;-62
2024/01/30 00:09:14;;;;;;;11.35;7.90;;;;;;;;;;685293;28;944;-62
2024/01/30 00:09:34;;;;;;;11.20;8.00;;;;;;;;;;683574;28;1239;-63
2024/01/30 00:09:55;;;;;;;11.10;7.72;;;;;;;;;;683389;28;1465;-64
2024/01/30 00:10:16;;;;;;;11.43;7.60;;;;;;;;;;686225;28;4290;-63
2024/01/30 00:10:36;;;;;;;10.37;7.50;;;;;;;;;;687463;28;904;-65
2024/01/30 00:10:56;;;;;;;10.90;7.68;;;;;;;;;;686459;28;1854;-64
2024/01/30 00:11:16;;;;;;;10.73;7.70;;;;;;;;;;686706;28;1264;-63
2024/01/30 00:11:37;;;;;;;11.70;8.57;;;;;;;;;;684007;28;4872;-66
2024/01/30 00:11:57;;;;;;;11.03;8.20;;;;;;;;;;683447;28;1835;-63
2024/01/30 00:12:17;;;;;;;10.73;7.80;;;;;;;;;;684898;28;858;-63
2024/01/30 00:12:38;;;;;;;9.95;7.47;;;;;;;;;;684334;28;1212;-65
2024/01/30 00:12:58;;;;;;;11.27;7.57;;;;;;;;;;683345;28;1633;-64
2024/01/30 00:13:19;;;;;;;12.80;7.80;;;;;;;;;;684476;28;4367;-64
2024/01/30 00:13:40;;;;;;;12.43;8.25;;;;;;;;;;687553;28;1382;-66
2024/01/30 00:14:00;;;;;;;11.73;8.30;;;;;;;;;;685424;28;1792;-63
2024/01/30 00:14:20;;;;;;;12.23;8.30;;;;;;;;;;687708;28;1300;-64
2024/01/30 00:14:43;;;;;;;10.98;7.75;;;;;;;;;;686254;28;1433;-64
2024/01/30 00:15:04;;;;;;;12.93;7.80;;;;;;;;;;686666;28;964;-65
2024/01/30 00:15:25;;;;;;;11.27;7.50;;;;;;;;;;687535;28;915;-63
2024/01/30 00:15:45;;;;;;;10.53;7.80;;;;;;;;;;688921;28;1437;-64
2024/01/30 00:16:06;;;;;;;10.77;7.90;;;;;;;;;;689505;28;4362;-64
2024/01/30 00:16:27;;;;;;;10.50;8.15;;;;;;;;;;689333;28;1102;-63
2024/01/30 00:16:48;;;;;;;10.98;8.18;;;;;;;;;;688367;28;1942;-63
2024/01/30 00:17:09;;;;;;;10.87;8.27;;;;;;;;;;689844;28;814;-62
2024/01/30 00:17:29;;;;;;;10.93;8.23;;;;;;;;;;690070;28;1310;-64
2024/01/30 00:17:52;;;;;;;10.77;8.10;;;;;;;;;;689150;28;2364;-65
2024/01/30 00:18:12;;;;;;;11.73;7.95;;;;;;;;;;689376;28;1042;-63
2024/01/30 00:18:32;;;;;;;10.83;8.00;;;;;;;;;;689905;28;1245;-64
2024/01/30 00:18:53;;;;;;;11.10;8.07;;;;;;;;;;686803;28;2702;-64
2024/01/30 00:19:13;;;;;;;11.07;8.00;;;;;;;;;;686947;28;4446;-64
2024/01/30 00:19:33;;;;;;;10.03;8.00;;;;;;;;;;687015;28;885;-63
2024/01/30 00:19:54;;;;;;;11.55;7.85;;;;;;;;;;685835;28;1174;-63
2024/01/30 00:20:14;;;;;;;11.17;8.20;;;;;;;;;;687295;28;2007;-65
2024/01/30 00:20:34;;;;;;;11.83;8.77;;;;;;;;;;687451;28;1380;-63
2024/01/30 00:20:55;;;;;;;11.83;9.10;;;;;;;;;;686169;28;1880;-63
2024/01/30 00:21:15;;;;;;;11.70;8.17;;;;;;;;;;686804;28;922;-63
2024/01/30 00:21:35;;;;;;;12.10;7.80;;;;;;;;;;686630;28;1427;-63
2024/01/30 00:21:55;;;;;;;11.73;7.70;;;;;;;;;;686541;28;2167;-63
2024/01/30 00:22:16;;;;;;;10.47;7.60;;;;;;;;;;686532;28;4496;-63
2024/01/30 00:22:36;;;;;;;10.00;7.70;;;;;;;;;;687607;28;845;-66
2024/01/30 00:22:56;;;;;;;10.53;8.27;;;;;;;;;;686472;28;1442;-64
2024/01/30 00:23:16;;;;;;;11.80;8.10;;;;;;;;;;687318;28;1425;-63
2024/01/30 00:23:37;;;;;;;11.90;8.00;;;;;;;;;;687047;28;1234;-63
2024/01/30 00:23:57;;;;;;;10.77;8.07;;;;;;;;;;685675;28;1988;-65
2024/01/30 00:24:18;;;;;;;10.83;7.87;;;;;;;;;;687526;28;770;-66
2024/01/30 00:24:38;;;;;;;10.07;7.53;;;;;;;;;;687926;28;951;-63
2024/01/30 00:24:58;;;;;;;10.60;7.53;;;;;;;;;;686184;28;2241;-63
2024/01/30 00:25:19;;;;;;;11.33;8.03;;;;;;;;;;686728;28;4354;-61
2024/01/30 00:25:39;;;;;;;10.95;7.97;;;;;;;;;;687329;28;1301;-65
2024/01/30 00:26:00;;;;;;;12.68;8.40;;;;;;;;;;686776;28;1739;-64
2024/01/30 00:26:20;;;;;;;12.97;8.40;;;;;;;;;;687604;28;871;-65
2024/01/30 00:26:40;;;;;;;12.25;8.18;;;;;;;;;;687028;28;1138;-63
2024/01/30 00:27:01;;;;;;;11.00;8.17;;;;;;;;;;686509;28;1702;-63
2024/01/30 00:27:21;;;;;;;11.43;8.30;;;;;;;;;;687484;28;1055;-63
2024/01/30 00:27:41;;;;;;;10.40;7.68;;;;;;;;;;685917;28;1797;-65
2024/01/30 00:28:02;;;;;;;10.87;7.73;;;;;;;;;;687422;28;814;-63
2024/01/30 00:28:22;;;;;;;11.18;7.63;;;;;;;;;;685022;28;4252;-64
2024/01/30 00:28:43;;;;;;;10.80;7.80;;;;;;;;;;685939;28;1785;-63
2024/01/30 00:29:03;;;;;;;11.75;7.93;;;;;;;;;;687803;28;1130;-63
2024/01/30 00:29:25;;;;;;;11.53;8.03;;;;;;;;;;687727;28;872;-62
2024/01/30 00:29:45;;;;;;;10.10;7.63;;;;;;;;;;686454;28;1507;-63
2024/01/30 00:30:06;;;;;;;10.77;7.80;;;;;;;;;;687099;28;1449;-67
2024/01/30 00:30:27;;;;;;;11.73;8.07;;;;;;;;;;687160;28;1167;-63
2024/01/30 00:30:47;;;;;;;12.15;8.20;;;;;;;;;;686093;28;1308;-63
2024/01/30 00:31:07;;;;;;;10.87;7.97;;;;;;;;;;686216;28;4433;-63
2024/01/30 00:31:28;;;;;;;11.80;8.18;;;;;;;;;;687726;28;929;-63
2024/01/30 00:31:48;;;;;;;11.23;8.50;;;;;;;;;;686404;28;956;-65
2024/01/30 00:32:08;;;;;;;11.30;8.23;;;;;;;;;;686879;28;1191;-63
2024/01/30 00:32:29;;;;;;;11.55;8.15;;;;;;;;;;690351;28;869;-63
2024/01/30 00:32:49;;;;;;;11.63;7.70;;;;;;;;;;688802;28;1892;-64
2024/01/30 00:33:09;;;;;;;12.23;7.77;;;;;;;;;;690530;28;790;-63
2024/01/30 00:33:30;;;;;;;11.38;8.10;;;;;;;;;;689989;28;877;-63
2024/01/30 00:33:50;;;;;;;11.17;8.40;;;;;;;;;;687812;28;1750;-65
2024/01/30 00:34:11;;;;;;;11.85;8.40;;;;;;;;;;688348;28;4452;-64
2024/01/30 00:34:31;;;;;;;11.13;8.20;;;;;;;;;;685187;28;888;-63
2024/01/30 00:34:51;;;;;;;11.65;8.40;;;;;;;;;;682529;28;1841;-64
2024/01/30 00:35:12;;;;;;;12.17;8.07;;;;;;;;;;685026;28;1302;-63
2024/01/30 00:35:32;;;;;;;11.13;7.80;;;;;;;;;;684522;28;1011;-63
2024/01/30 00:35:52;;;;;;;10.40;8.10;;;;;;;;;;683756;28;1496;-64
2024/01/30 00:36:13;;;;;;;10.47;7.70;;;;;;;;;;684328;28;1317;-65
2024/01/30 00:36:34;;;;;;;10.75;8.07;;;;;;;;;;684783;28;929;-63
2024/01/30 00:36:54;;;;;;;11.77;8.18;;;;;;;;;;683320;28;2384;-65
2024/01/30 00:37:14;;;;;;;11.87;8.10;;;;;;;;;;684439;28;4358;-64
2024/01/30 00:37:35;;;;;;;11.82;7.97;;;;;;;;;;682007;29;1048;-63
2024/01/30 00:37:55;;;;;;;12.20;8.37;;;;;;;;;;680771;28;1738;-64
2024/01/30 00:38:15;;;;;;;12.67;8.63;;;;;;;;;;684638;28;984;-64
2024/01/30 00:38:36;;;;;;;11.82;8.38;;;;;;;;;;684280;28;1415;-64
2024/01/30 00:38:56;;;;;;;12.27;7.97;;;;;;;;;;683351;28;1761;-64
2024/01/30 00:39:19;;;;;;;12.50;7.97;;;;;;;;;;684749;28;1179;-64
2024/01/30 00:39:39;;;;;;;10.73;7.90;;;;;;;;;;683897;28;910;-63
2024/01/30 00:39:59;;;;;;;11.52;8.63;;;;;;;;;;683916;28;1383;-65
2024/01/30 00:40:20;;;;;;;12.77;8.20;;;;;;;;;;686206;28;4390;-62
2024/01/30 00:40:41;;;;;;;12.93;8.57;;;;;;;;;;687506;28;1062;-64
2024/01/30 00:41:04;;;;;;;11.17;8.07;;;;;;;;;;686574;28;2360;-63
2024/01/30 00:41:24;;;;;;;11.68;8.27;;;;;;;;;;687868;28;884;-64
2024/01/30 00:41:45;;;;;;;12.57;8.43;;;;;;;;;;686310;28;1835;-64
2024/01/30 00:42:05;;;;;;;11.95;8.07;;;;;;;;;;687618;28;841;-64
2024/01/30 00:42:26;;;;;;;12.03;7.83;;;;;;;;;;686798;28;1438;-62
2024/01/30 00:42:46;;;;;;;12.02;7.78;;;;;;;;;;686796;28;1853;-63
2024/01/30 00:43:06;;;;;;;11.43;8.00;;;;;;;;;;686967;28;4420;-64
2024/01/30 00:43:27;;;;;;;11.47;8.10;;;;;;;;;;687247;28;1513;-64
2024/01/30 00:43:47;;;;;;;12.43;8.20;;;;;;;;;;686908;28;1508;-63
2024/01/30 00:44:07;;;;;;;12.77;8.03;;;;;;;;;;687474;28;1008;-64
2024/01/30 00:44:28;;;;;;;12.40;8.25;;;;;;;;;;685889;28;1102;-62
2024/01/30 00:44:49;;;;;;;11.23;8.27;;;;;;;;;;686692;28;1061;-63
2024/01/30 00:45:13;;;;;;;12.48;8.13;;;;;;;;;;687941;28;830;-63
2024/01/30 00:45:34;;;;;;;12.43;7.90;;;;;;;;;;687451;28;984;-63
2024/01/30 00:45:54;;;;;;;10.97;7.87;;;;;;;;;;685994;28;1745;-63
2024/01/30 00:46:14;;;;;;;11.23;7.80;;;;;;;;;;687329;28;4520;-63
2024/01/30 00:46:35;;;;;;;12.50;8.18;;;;;;;;;;687453;28;1326;-63
2024/01/30 00:46:55;;;;;;;11.80;8.17;;;;;;;;;;687241;28;1827;-62
2024/01/30 00:47:15;;;;;;;10.90;8.17;;;;;;;;;;688211;28;933;-64
2024/01/30 00:47:35;;;;;;;10.73;7.63;;;;;;;;;;687931;28;1137;-63
2024/01/30 00:47:56;;;;;;;11.47;8.07;;;;;;;;;;686974;28;1753;-65
2024/01/30 00:48:16;;;;;;;12.00;8.50;;;;;;;;;;688144;28;1263;-63
2024/01/30 00:48:37;;;;;;;13.07;8.20;;;;;;;;;;687088;28;848;-63
2024/01/30 00:48:57;;;;;;;11.57;8.10;;;;;;;;;;686847;28;2323;-63
2024/01/30 00:49:17;;;;;;;11.03;8.27;;;;;;;;;;687222;28;4366;-63
2024/01/30 00:49:38;;;;;;;11.03;8.70;;;;;;;;;;687587;28;1247;-63
2024/01/30 00:49:58;;;;;;;13.00;8.77;;;;;;;;;;686927;28;1739;-63
2024/01/30 00:50:18;;;;;;;11.00;8.17;;;;;;;;;;688221;28;806;-63
2024/01/30 00:50:38;;;;;;;10.33;8.17;;;;;;;;;;687680;28;838;-64
2024/01/30 00:50:59;;;;;;;11.38;8.73;;;;;;;;;;687145;28;1735;-65
2024/01/30 00:51:19;;;;;;;12.83;8.93;;;;;;;;;;687256;28;1415;-63
2024/01/30 00:51:39;;;;;;;11.73;8.57;;;;;;;;;;687524;28;1058;-63
2024/01/30 00:52:00;;;;;;;11.87;8.17;;;;;;;;;;686928;28;2271;-63
2024/01/30 00:52:20;;;;;;;11.57;8.37;;;;;;;;;;685282;28;4545;-65
2024/01/30 00:52:41;;;;;;;12.02;8.00;;;;;;;;;;684663;28;1020;-65
2024/01/30 00:53:02;;;;;;;12.32;8.20;;;;;;;;;;683850;28;1301;-66
2024/01/30 00:53:22;;;;;;;11.23;8.57;;;;;;;;;;685196;28;1334;-62
2024/01/30 00:53:42;;;;;;;11.23;8.15;;;;;;;;;;685473;28;830;-64
2024/01/30 00:54:03;;;;;;;12.13;8.30;;;;;;;;;;684449;28;1926;-64
2024/01/30 00:54:23;;;;;;;11.87;8.03;;;;;;;;;;685183;28;1130;-64
2024/01/30 00:54:43;;;;;;;12.75;8.35;;;;;;;;;;685047;28;1207;-65
2024/01/30 00:55:04;;;;;;;13.03;8.53;;;;;;;;;;683858;28;4377;-64
2024/01/30 00:55:24;;;;;;;12.32;8.68;;;;;;;;;;685501;28;909;-63
2024/01/30 00:55:44;;;;;;;11.70;8.40;;;;;;;;;;684095;28;2526;-66
2024/01/30 00:56:05;;;;;;;11.57;8.37;;;;;;;;;;685263;28;1175;-66
2024/01/30 00:56:25;;;;;;;13.23;8.30;;;;;;;;;;685545;28;922;-64
2024/01/30 00:56:45;;;;;;;11.53;7.90;;;;;;;;;;683847;28;1752;-63
2024/01/30 00:57:06;;;;;;;10.60;7.53;;;;;;;;;;684790;28;945;-62
2024/01/30 00:57:27;;;;;;;11.33;7.97;;;;;;;;;;682714;29;906;-64
2024/01/30 00:57:47;;;;;;;10.90;8.43;;;;;;;;;;681047;28;1867;-64
2024/01/30 00:58:07;;;;;;;10.93;8.47;;;;;;;;;;679206;29;4411;-63
2024/01/30 00:58:28;;;;;;;12.25;9.20;;;;;;;;;;680513;29;795;-66
2024/01/30 00:58:48;;;;;;;11.60;8.60;;;;;;;;;;684191;28;2245;-63
2024/01/30 00:59:08;;;;;;;12.10;8.40;;;;;;;;;;685086;28;964;-63
2024/01/30 00:59:29;;;;;;;11.73;8.17;;;;;;;;;;687430;28;1160;-64
2024/01/30 00:59:49;;;;;;;13.67;8.40;;;;;;;;;;684955;28;2446;-64
2024/01/30 01:00:10;;;;;;;13.45;8.55;;;;;;;;;;687856;28;1911;-63
2024/01/30 01:00:31;;;;;;;12.10;8.13;;;;;;;;;;688354;28;898;-64
2024/01/30 01:00:52;;;;;;;12.45;7.80;;;;;;;;;;687064;28;1736;-64
2024/01/30 01:01:12;;;;;;;12.27;8.30;;;;;;;;;;687149;28;4784;-63
2024/01/30 01:01:33;;;;;;;11.80;8.07;;;;;;;;;;688201;28;806;-63
2024/01/30 01:01:53;;;;;;;11.30;7.87;;;;;;;;;;686474;28;902;-64
2024/01/30 01:02:15;;;;;;;12.23;7.97;;;;;;;;;;687738;28;876;-63
2024/01/30 01:02:35;;;;;;;13.20;8.55;;;;;;;;;;687567;28;1172;-65
2024/01/30 01:02:55;;;;;;;12.27;8.17;;;;;;;;;;685851;28;1540;-63
2024/01/30 01:03:16;;;;;;;11.23;8.02;;;;;;;;;;687436;28;961;-64
2024/01/30 01:03:36;;;;;;;10.83;8.00;;;;;;;;;;688417;28;834;-63
2024/01/30 01:03:58;;;;;;;12.13;8.30;;;;;;;;;;686770;28;1749;-64
2024/01/30 01:04:18;;;;;;;11.63;8.68;;;;;;;;;;687257;28;4384;-63
2024/01/30 01:04:38;;;;;;;11.50;8.13;;;;;;;;;;687565;28;1308;-63
2024/01/30 01:04:58;;;;;;;11.03;7.80;;;;;;;;;;687076;28;1542;-66
2024/01/30 01:05:18;;;;;;;12.00;8.05;;;;;;;;;;687291;28;957;-65
2024/01/30 01:05:39;;;;;;;11.00;8.23;;;;;;;;;;688031;28;846;-64
2024/01/30 01:05:59;;;;;;;11.43;8.20;;;;;;;;;;686888;28;1716;-65
2024/01/30 01:06:19;;;;;;;11.02;7.88;;;;;;;;;;685893;28;1463;-64
2024/01/30 01:06:42;;;;;;;11.97;8.10;;;;;;;;;;688027;28;1000;-64
2024/01/30 01:07:02;;;;;;;13.48;8.43;;;;;;;;;;686906;28;1473;-64
2024/01/30 01:07:23;;;;;;;13.33;8.70;;;;;;;;;;687188;28;4304;-65
2024/01/30 01:07:43;;;;;;;12.53;8.30;;;;;;;;;;687536;28;3548;-65
2024/01/30 01:08:03;;;;;;;11.57;8.25;;;;;;;;;;686456;28;4950;-65
2024/01/30 01:08:25;;;;;;;11.77;8.30;;;;;;;;;;687591;28;975;-63
2024/01/30 01:08:45;;;;;;;10.20;7.65;;;;;;;;;;688283;28;903;-65
2024/01/30 01:09:05;;;;;;;12.77;8.17;;;;;;;;;;687184;28;2651;-65
2024/01/30 01:09:26;;;;;;;11.43;8.40;;;;;;;;;;687324;28;1226;-65
2024/01/30 01:09:46;;;;;;;12.15;8.18;;;;;;;;;;686229;28;1796;-64
2024/01/30 01:10:08;;;;;;;11.98;7.78;;;;;;;;;;687248;28;4587;-64
2024/01/30 01:10:28;;;;;;;10.50;7.85;;;;;;;;;;685560;28;906;-64
2024/01/30 01:10:48;;;;;;;11.13;8.03;;;;;;;;;;683916;28;1947;-65
2024/01/30 01:11:09;;;;;;;11.82;8.48;;;;;;;;;;684357;28;1452;-65
2024/01/30 01:11:29;;;;;;;11.37;8.20;;;;;;;;;;685249;28;972;-64
2024/01/30 01:11:50;;;;;;;11.13;8.05;;;;;;;;;;684047;28;1820;-64
2024/01/30 01:12:10;;;;;;;11.13;7.90;;;;;;;;;;685569;28;787;-64
2024/01/30 01:12:30;;;;;;;10.70;7.93;;;;;;;;;;685235;28;1219;-64
2024/01/30 01:12:50;;;;;;;11.60;8.60;;;;;;;;;;683783;28;2854;-64
2024/01/30 01:13:10;;;;;;;11.90;7.97;;;;;;;;;;686135;28;4374;-63
2024/01/30 01:13:31;;;;;;;11.77;8.47;;;;;;;;;;688039;28;909;-63
2024/01/30 01:13:51;;;;;;;12.03;8.23;;;;;;;;;;686270;28;1967;-64
2024/01/30 01:14:11;;;;;;;12.50;7.97;;;;;;;;;;688050;28;1219;-65
2024/01/30 01:14:32;;;;;;;12.00;8.37;;;;;;;;;;688295;28;929;-64
2024/01/30 01:14:52;;;;;;;12.30;8.73;;;;;;;;;;686746;28;1919;-64
2024/01/30 01:15:12;;;;;;;12.25;8.52;;;;;;;;;;687627;28;921;-63
2024/01/30 01:15:32;;;;;;;10.60;7.77;;;;;;;;;;687673;28;5257;-64
2024/01/30 01:15:53;;;;;;;11.60;7.97;;;;;;;;;;685341;28;2418;-64
2024/01/30 01:16:13;;;;;;;12.77;8.45;;;;;;;;;;685849;28;4512;-65
2024/01/30 01:16:33;;;;;;;10.73;8.47;;;;;;;;;;685008;28;902;-64
2024/01/30 01:16:54;;;;;;;12.25;8.40;;;;;;;;;;682808;28;2052;-66
2024/01/30 01:17:14;;;;;;;11.63;8.30;;;;;;;;;;685601;28;934;-63
2024/01/30 01:17:34;;;;;;;13.13;8.90;;;;;;;;;;685396;28;1386;-64
2024/01/30 01:17:54;;;;;;;14.60;8.65;;;;;;;;;;683506;28;2547;-64
2024/01/30 01:18:15;;;;;;;14.33;8.40;;;;;;;;;;685348;28;811;-63
2024/01/30 01:18:35;;;;;;;11.65;8.13;;;;;;;;;;685415;28;976;-64
2024/01/30 01:18:56;;;;;;;11.17;8.10;;;;;;;;;;683734;28;2531;-65
2024/01/30 01:19:16;;;;;;;14.05;8.50;;;;;;;;;;684439;28;4750;-63
2024/01/30 01:19:36;;;;;;;12.90;8.27;;;;;;;;;;685504;28;913;-63
2024/01/30 01:19:57;;;;;;;10.93;7.80;;;;;;;;;;682013;28;2338;-63
2024/01/30 01:20:17;;;;;;;11.30;8.07;;;;;;;;;;685325;28;1995;-63
2024/01/30 01:20:37;;;;;;;11.63;8.40;;;;;;;;;;684871;28;1233;-64
2024/01/30 01:20:59;;;;;;;11.90;8.20;;;;;;;;;;684108;28;1560;-64
2024/01/30 01:21:19;;;;;;;10.68;7.85;;;;;;;;;;684688;28;996;-63
2024/01/30 01:21:39;;;;;;;11.80;8.03;;;;;;;;;;684573;28;929;-65
2024/01/30 01:21:59;;;;;;;12.13;8.27;;;;;;;;;;686000;28;1784;-65
2024/01/30 01:22:20;;;;;;;11.57;8.17;;;;;;;;;;689356;28;4353;-65
2024/01/30 01:22:40;;;;;;;10.63;7.90;;;;;;;;;;690870;28;940;-65
2024/01/30 01:23:00;;;;;;;11.07;8.23;;;;;;;;;;689486;28;2401;-65
2024/01/30 01:23:20;;;;;;;11.60;8.50;;;;;;;;;;690041;28;967;-64
2024/01/30 01:23:41;;;;;;;12.77;8.43;;;;;;;;;;690441;28;1288;-65
2024/01/30 01:24:01;;;;;;;11.17;8.13;;;;;;;;;;688497;28;991;-64
2024/01/30 01:24:21;;;;;;;12.70;8.63;;;;;;;;;;690430;28;793;-63
2024/01/30 01:24:41;;;;;;;12.30;8.55;;;;;;;;;;690571;28;960;-65
2024/01/30 01:25:02;;;;;;;11.90;8.37;;;;;;;;;;688724;28;2134;-64
2024/01/30 01:25:22;;;;;;;11.93;9.20;;;;;;;;;;689788;28;4503;-64
2024/01/30 01:25:43;;;;;;;11.20;8.47;;;;;;;;;;690637;28;944;-64
2024/01/30 01:26:03;;;;;;;11.70;8.33;;;;;;;;;;689228;28;1361;-64
2024/01/30 01:26:23;;;;;;;10.80;8.18;;;;;;;;;;688674;28;778;-63
2024/01/30 01:26:44;;;;;;;11.97;8.63;;;;;;;;;;689071;28;1639;-63
2024/01/30 01:27:05;;;;;;;14.03;8.47;;;;;;;;;;687440;28;2418;-63
2024/01/30 01:27:26;;;;;;;13.82;8.40;;;;;;;;;;688785;28;890;-64
2024/01/30 01:27:51;;;;;;;12.77;8.80;;;;;;;;;;689209;28;830;-65
2024/01/30 01:28:11;;;;;;;12.65;8.68;;;;;;;;;;685681;28;4445;-63
2024/01/30 01:28:31;;;;;;;13.87;8.80;;;;;;;;;;687921;28;1236;-65
2024/01/30 01:28:52;;;;;;;12.53;8.33;;;;;;;;;;686618;28;1808;-65
2024/01/30 01:29:12;;;;;;;11.60;8.25;;;;;;;;;;687799;28;802;-63
2024/01/30 01:29:33;;;;;;;14.27;8.13;;;;;;;;;;685089;28;810;-63
2024/01/30 01:29:53;;;;;;;12.48;8.40;;;;;;;;;;684356;28;1803;-63
2024/01/30 01:30:18;;;;;;;12.00;8.33;;;;;;;;;;687483;28;1267;-64
2024/01/30 01:30:39;;;;;;;12.60;8.55;;;;;;;;;;687513;28;924;-63
2024/01/30 01:31:04;;;;;;;11.50;8.37;;;;;;;;;;686853;28;2194;-62
2024/01/30 01:31:29;;;;;;;11.20;7.63;;;;;;;;;;687795;28;5287;-64
2024/01/30 01:31:49;;;;;;;11.30;8.38;;;;;;;;;;686351;28;1945;-63
2024/01/30 01:32:09;;;;;;;10.32;8.25;;;;;;;;;;687770;28;1314;-65
2024/01/30 01:32:30;;;;;;;13.17;8.40;;;;;;;;;;687803;28;869;-63
2024/01/30 01:32:54;;;;;;;11.77;7.90;;;;;;;;;;686534;28;1940;-63
2024/01/30 01:33:15;;;;;;;11.10;7.88;;;;;;;;;;687805;28;947;-63
2024/01/30 01:33:36;;;;;;;11.47;8.43;;;;;;;;;;687737;28;1290;-65
2024/01/30 01:33:57;;;;;;;11.77;8.25;;;;;;;;;;686546;28;1395;-63
2024/01/30 01:34:17;;;;;;;11.27;8.30;;;;;;;;;;686506;28;4353;-64
2024/01/30 01:34:37;;;;;;;12.33;8.30;;;;;;;;;;684426;28;1579;-64
2024/01/30 01:34:57;;;;;;;12.77;8.33;;;;;;;;;;682974;28;1606;-64
2024/01/30 01:35:18;;;;;;;13.17;8.50;;;;;;;;;;685362;28;1236;-65
2024/01/30 01:35:38;;;;;;;11.93;8.10;;;;;;;;;;687842;28;1273;-64
2024/01/30 01:36:02;;;;;;;10.85;8.00;;;;;;;;;;686071;28;1538;-64
2024/01/30 01:36:22;;;;;;;10.30;7.63;;;;;;;;;;688327;28;833;-65
2024/01/30 01:36:42;;;;;;;11.90;8.20;;;;;;;;;;690611;28;881;-63
2024/01/30 01:37:03;;;;;;;11.50;7.97;;;;;;;;;;689168;28;1722;-64
2024/01/30 01:37:26;;;;;;;11.73;8.10;;;;;;;;;;691313;28;4404;-64
2024/01/30 01:37:46;;;;;;;12.35;8.27;;;;;;;;;;688246;28;1027;-63
2024/01/30 01:38:07;;;;;;;10.77;7.93;;;;;;;;;;686883;28;1899;-64
2024/01/30 01:38:27;;;;;;;11.97;8.53;;;;;;;;;;688020;28;1195;-64
2024/01/30 01:38:47;;;;;;;11.70;8.60;;;;;;;;;;687378;28;1161;-63
2024/01/30 01:39:08;;;;;;;11.73;8.40;;;;;;;;;;686444;28;1753;-64
2024/01/30 01:39:29;;;;;;;11.52;8.48;;;;;;;;;;688118;28;1165;-63
2024/01/30 01:39:49;;;;;;;12.20;8.30;;;;;;;;;;688285;28;845;-64
2024/01/30 01:40:09;;;;;;;12.77;8.38;;;;;;;;;;685891;28;4396;-65
2024/01/30 01:40:29;;;;;;;12.67;8.40;;;;;;;;;;687992;28;1291;-64
2024/01/30 01:40:51;;;;;;;10.73;8.13;;;;;;;;;;686697;28;1517;-66
2024/01/30 01:41:11;;;;;;;10.98;8.10;;;;;;;;;;687109;28;865;-63
2024/01/30 01:41:31;;;;;;;11.40;7.97;;;;;;;;;;687856;28;841;-64
2024/01/30 01:41:52;;;;;;;11.88;8.00;;;;;;;;;;686578;28;2325;-65
2024/01/30 01:42:12;;;;;;;13.07;8.53;;;;;;;;;;687922;28;970;-63
2024/01/30 01:42:32;;;;;;;12.53;8.30;;;;;;;;;;687938;28;964;-63
2024/01/30 01:42:54;;;;;;;11.50;8.45;;;;;;;;;;686311;28;2858;-64
2024/01/30 01:43:14;;;;;;;11.98;8.23;;;;;;;;;;687369;28;4380;-65
2024/01/30 01:43:34;;;;;;;11.80;8.33;;;;;;;;;;687793;28;1168;-64
2024/01/30 01:43:54;;;;;;;11.35;8.57;;;;;;;;;;686744;28;2447;-63
2024/01/30 01:44:15;;;;;;;11.83;8.07;;;;;;;;;;687457;28;881;-64
2024/01/30 01:44:35;;;;;;;13.67;8.20;;;;;;;;;;687988;28;848;-64
2024/01/30 01:44:55;;;;;;;11.85;7.93;;;;;;;;;;686330;28;2159;-65
2024/01/30 01:45:15;;;;;;;13.27;8.53;;;;;;;;;;687530;28;1154;-64
2024/01/30 01:45:36;;;;;;;11.43;8.33;;;;;;;;;;688017;28;811;-64
2024/01/30 01:45:56;;;;;;;11.55;8.38;;;;;;;;;;686632;28;2406;-64
2024/01/30 01:46:17;;;;;;;11.43;8.13;;;;;;;;;;687225;28;4320;-64
2024/01/30 01:46:37;;;;;;;12.15;8.50;;;;;;;;;;687878;28;1027;-63
2024/01/30 01:46:57;;;;;;;10.83;8.13;;;;;;;;;;686259;28;2552;-65
2024/01/30 01:47:18;;;;;;;11.00;8.10;;;;;;;;;;686688;28;1270;-65
2024/01/30 01:47:38;;;;;;;11.23;7.97;;;;;;;;;;687266;28;1250;-63
2024/01/30 01:47:58;;;;;;;11.27;7.90;;;;;;;;;;686688;28;1749;-64
2024/01/30 01:48:19;;;;;;;12.48;7.95;;;;;;;;;;687779;28;1245;-65
2024/01/30 01:48:39;;;;;;;13.27;7.97;;;;;;;;;;684946;28;812;-63
2024/01/30 01:49:01;;;;;;;11.63;7.68;;;;;;;;;;683607;28;2422;-63
2024/01/30 01:49:24;;;;;;;10.27;7.75;;;;;;;;;;682452;28;4410;-64
2024/01/30 01:49:44;;;;;;;12.10;8.15;;;;;;;;;;684197;28;3516;-63
2024/01/30 01:50:04;;;;;;;11.30;8.10;;;;;;;;;;683853;28;2326;-65
2024/01/30 01:50:25;;;;;;;11.32;8.23;;;;;;;;;;685281;28;961;-65
2024/01/30 01:50:45;;;;;;;11.33;8.03;;;;;;;;;;685393;28;961;-64
2024/01/30 01:51:05;;;;;;;12.20;8.43;;;;;;;;;;683275;28;2243;-64
2024/01/30 01:51:27;;;;;;;10.70;8.05;;;;;;;;;;685270;28;933;-65
2024/01/30 01:51:48;;;;;;;12.50;7.97;;;;;;;;;;685064;28;855;-63
2024/01/30 01:52:08;;;;;;;12.50;8.10;;;;;;;;;;683552;28;4386;-63
2024/01/30 01:52:28;;;;;;;12.25;8.30;;;;;;;;;;685245;28;895;-65
2024/01/30 01:52:49;;;;;;;12.47;8.17;;;;;;;;;;684807;28;877;-65
2024/01/30 01:53:10;;;;;;;11.32;8.32;;;;;;;;;;683780;28;1769;-63
2024/01/30 01:53:31;;;;;;;11.80;8.05;;;;;;;;;;682578;29;910;-64
2024/01/30 01:53:51;;;;;;;11.60;8.00;;;;;;;;;;681312;28;1103;-66
2024/01/30 01:54:11;;;;;;;12.00;9.00;;;;;;;;;;685038;28;881;-63
2024/01/30 01:54:32;;;;;;;12.07;8.30;;;;;;;;;;685235;28;806;-63
2024/01/30 01:54:52;;;;;;;12.23;8.00;;;;;;;;;;683228;28;2407;-65
2024/01/30 01:55:13;;;;;;;13.07;8.43;;;;;;;;;;682020;28;4598;-63
2024/01/30 01:55:34;;;;;;;11.23;8.63;;;;;;;;;;685001;28;826;-63
2024/01/30 01:55:54;;;;;;;11.27;8.25;;;;;;;;;;682959;28;1754;-63
2024/01/30 01:56:15;;;;;;;12.45;8.60;;;;;;;;;;685441;28;913;-65
2024/01/30 01:56:35;;;;;;;12.90;8.50;;;;;;;;;;685327;28;925;-64
2024/01/30 01:56:56;;;;;;;11.63;8.55;;;;;;;;;;683303;28;2524;-63
2024/01/30 01:57:16;;;;;;;11.30;8.23;;;;;;;;;;685042;28;968;-63
2024/01/30 01:57:36;;;;;;;10.90;8.20;;;;;;;;;;685174;28;1134;-64
2024/01/30 01:57:57;;;;;;;11.10;8.07;;;;;;;;;;684103;28;1061;-63
2024/01/30 01:58:17;;;;;;;11.75;8.18;;;;;;;;;;686635;28;4515;-63
2024/01/30 01:58:38;;;;;;;12.10;8.30;;;;;;;;;;688383;28;998;-64
2024/01/30 01:59:07;;;;;;;11.65;8.10;;;;;;;;;;687419;28;1543;-64
2024/01/30 01:59:27;;;;;;;11.45;8.20;;;;;;;;;;688457;28;969;-64
2024/01/30 01:59:48;;;;;;;12.33;7.90;;;;;;;;;;688466;28;912;-63
2024/01/30 02:00:10;;;;;;;10.90;7.88;;;;;;;;;;690015;28;2305;-63
2024/01/30 02:00:31;;;;;;;12.32;8.38;;;;;;;;;;690553;28;977;-65
2024/01/30 02:00:51;;;;;;;12.45;8.13;;;;;;;;;;693184;28;1280;-63
2024/01/30 02:01:12;;;;;;;11.20;8.20;;;;;;;;;;689027;28;4564;-63
2024/01/30 02:01:33;;;;;;;11.32;7.95;;;;;;;;;;690454;28;925;-63
2024/01/30 02:01:55;;;;;;;11.02;7.82;;;;;;;;;;687090;28;1768;-65
2024/01/30 02:02:17;;;;;;;11.75;7.95;;;;;;;;;;687436;28;976;-64
2024/01/30 02:02:38;;;;;;;11.23;7.90;;;;;;;;;;687756;28;1250;-63
2024/01/30 02:02:59;;;;;;;11.52;7.85;;;;;;;;;;687553;28;1742;-64
2024/01/30 02:03:21;;;;;;;11.90;7.90;;;;;;;;;;687770;28;960;-63
2024/01/30 02:03:41;;;;;;;13.02;8.35;;;;;;;;;;687324;28;818;-64
2024/01/30 02:04:02;;;;;;;11.60;8.45;;;;;;;;;;683538;28;3315;-63
2024/01/30 02:04:22;;;;;;;11.30;8.00;;;;;;;;;;684269;28;4353;-63
2024/01/30 02:04:42;;;;;;;11.60;7.70;;;;;;;;;;684916;28;994;-63
2024/01/30 02:05:03;;;;;;;11.87;7.90;;;;;;;;;;681396;28;1744;-65
2024/01/30 02:05:24;;;;;;;10.68;8.00;;;;;;;;;;682086;29;1092;-64
2024/01/30 02:05:45;;;;;;;12.57;8.05;;;;;;;;;;682336;29;870;-63
2024/01/30 02:06:05;;;;;;;12.35;8.40;;;;;;;;;;683298;28;1936;-64